createdAt,value
2023-01-21T00:00:45.839Z,15.02
2023-01-21T00:03:48.873Z,21.87
2023-01-21T00:06:51.009Z,13.02
2023-01-21T00:09:53.304Z,23.42
2023-01-21T00:12:55.550Z,22.83
2023-01-21T00:15:57.894Z,23.95
2023-01-21T00:19:00.363Z,24.80
2023-01-21T00:22:02.419Z,13.43
2023-01-21T00:25:04.991Z,18.60
2023-01-21T00:28:07.239Z,17.63
2023-01-21T00:31:11.776Z,23.00
2023-01-21T00:34:14.519Z,17.30
2023-01-21T00:37:16.488Z,28.48
2023-01-21T00:40:20.475Z,19.60
2023-01-21T00:43:22.665Z,20.60
2023-01-21T00:46:24.902Z,15.15
2023-01-21T00:49:27.222Z,30.23
2023-01-21T00:52:29.207Z,32.25
2023-01-21T00:55:31.389Z,26.98
2023-01-21T00:58:33.804Z,28.58
2023-01-21T01:01:41.487Z,26.42
2023-01-21T01:04:50.739Z,29.17
2023-01-21T01:07:52.650Z,31.45
2023-01-21T01:10:55.035Z,28.83
2023-01-21T01:13:59.049Z,30.73
2023-01-21T01:17:01.148Z,28.92
2023-01-21T01:20:03.561Z,31.23
2023-01-21T01:23:07.599Z,25.70
2023-01-21T01:26:15.716Z,28.67
2023-01-21T01:29:18.677Z,30.58
2023-01-21T01:32:20.900Z,29.83
2023-01-21T01:35:23.577Z,28.27
2023-01-21T01:38:25.722Z,28.33
2023-01-21T01:41:30.327Z,23.30
2023-01-21T01:44:59.443Z,23.92
2023-01-21T01:48:06.572Z,30.67
2023-01-21T01:51:11.085Z,28.67
2023-01-21T01:54:21.658Z,30.60
2023-01-21T01:57:33.972Z,24.05
2023-01-21T02:00:37.219Z,29.38
2023-01-21T02:03:46.498Z,24.77
2023-01-21T02:06:50.967Z,27.37
2023-01-21T02:09:53.866Z,27.65
2023-01-21T02:12:56.332Z,15.32
2023-01-21T02:16:24.752Z,28.00
2023-01-21T02:19:38.854Z,25.90
2023-01-21T02:22:50.582Z,25.07
2023-01-21T02:26:20.367Z,25.73
2023-01-21T02:29:25.744Z,27.13
2023-01-21T02:33:04.852Z,25.67
2023-01-21T02:36:21.883Z,24.17
2023-01-21T02:39:42.780Z,25.67
2023-01-21T02:43:05.540Z,22.88
2023-01-21T02:46:21.557Z,22.58
2023-01-21T02:49:58.505Z,21.83
2023-01-21T02:53:02.467Z,21.40
2023-01-21T02:56:13.819Z,21.93
2023-01-21T02:59:15.821Z,22.95
2023-01-21T03:02:20.730Z,21.75
2023-01-21T03:05:31.856Z,20.10
2023-01-21T03:08:48.690Z,16.02
2023-01-21T03:12:05.938Z,19.27
2023-01-21T03:15:31.891Z,19.17
2023-01-21T03:18:43.903Z,17.45
2023-01-21T03:21:48.248Z,16.40
2023-01-21T03:24:53.646Z,18.20
2023-01-21T03:28:01.226Z,14.50
2023-01-21T03:31:09.095Z,15.93
2023-01-21T03:34:16.119Z,16.83
2023-01-21T03:37:33.369Z,16.98
2023-01-21T03:40:44.741Z,17.02
2023-01-21T03:43:46.877Z,17.77
2023-01-21T03:47:00.664Z,13.05
2023-01-21T03:50:10.937Z,15.55
2023-01-21T03:53:13.341Z,15.75
2023-01-21T03:56:15.293Z,16.38
2023-01-21T03:59:17.497Z,14.77
2023-01-21T04:02:20.503Z,18.58
2023-01-21T04:05:22.672Z,16.48
2023-01-21T04:08:24.620Z,17.40
2023-01-21T04:11:27.235Z,7.18
2023-01-21T04:14:29.288Z,14.83
2023-01-21T04:17:31.279Z,13.82
2023-01-21T04:20:33.384Z,13.15
2023-01-21T04:23:35.661Z,16.25
2023-01-21T04:26:37.629Z,14.43
2023-01-21T04:29:40.003Z,14.80
2023-01-21T04:32:42.979Z,17.90
2023-01-21T04:35:45.544Z,20.05
2023-01-21T04:38:47.410Z,20.55
2023-01-21T04:41:49.430Z,22.08
2023-01-21T04:44:51.215Z,20.13
2023-01-21T04:47:53.313Z,19.23
2023-01-21T04:50:56.311Z,18.73
2023-01-21T04:53:58.315Z,19.73
2023-01-21T04:57:00.304Z,20.90
2023-01-21T05:00:05.582Z,21.67
2023-01-21T05:03:07.836Z,18.23
2023-01-21T05:06:09.832Z,20.10
2023-01-21T05:09:12.086Z,19.45
2023-01-21T05:12:18.840Z,19.00
2023-01-21T05:15:20.846Z,19.83
2023-01-21T05:18:22.837Z,19.50
2023-01-21T05:21:24.891Z,17.55
2023-01-21T05:24:29.122Z,18.15
2023-01-21T05:27:31.457Z,19.63
2023-01-21T05:30:33.753Z,19.47
2023-01-21T05:33:36.333Z,12.88
2023-01-21T05:36:38.606Z,15.63
2023-01-21T05:39:40.785Z,19.88
2023-01-21T05:42:43.617Z,17.30
2023-01-21T05:45:45.602Z,14.87
2023-01-21T05:48:47.716Z,15.77
2023-01-21T05:51:49.673Z,14.23
2023-01-21T05:55:01.508Z,17.50
2023-01-21T05:58:04.801Z,21.25
2023-01-21T06:01:07.016Z,20.30
2023-01-21T06:04:09.027Z,18.83
2023-01-21T06:07:11.299Z,16.48
2023-01-21T06:10:13.537Z,20.77
2023-01-21T06:13:16.518Z,23.77
2023-01-21T06:16:18.507Z,21.43
2023-01-21T06:19:20.847Z,22.13
2023-01-21T06:22:22.897Z,22.40
2023-01-21T06:25:26.349Z,13.80
2023-01-21T06:28:30.163Z,22.55
2023-01-21T06:31:32.460Z,21.53
2023-01-21T06:34:34.349Z,22.55
2023-01-21T06:37:36.334Z,23.08
2023-01-21T06:40:44.135Z,19.00
2023-01-21T06:43:47.319Z,23.42
2023-01-21T06:47:00.105Z,28.90
2023-01-21T06:50:02.630Z,20.77
2023-01-21T06:53:05.222Z,19.13
2023-01-21T06:56:07.552Z,19.95
2023-01-21T06:59:09.711Z,22.35
2023-01-21T07:02:13.031Z,21.57
2023-01-21T07:05:15.526Z,26.50
2023-01-21T07:08:18.025Z,25.92
2023-01-21T07:11:20.236Z,22.65
2023-01-21T07:14:22.757Z,25.63
2023-01-21T07:17:24.980Z,25.67
2023-01-21T07:20:27.016Z,24.40
2023-01-21T07:23:31.260Z,24.80
2023-01-21T07:26:38.094Z,23.00
2023-01-21T07:29:40.292Z,22.67
2023-01-21T07:32:42.328Z,25.50
2023-01-21T07:35:47.285Z,21.30
2023-01-21T07:38:55.560Z,21.05
2023-01-21T07:41:57.569Z,21.70
2023-01-21T07:45:02.488Z,21.55
2023-01-21T07:48:05.259Z,20.13
2023-01-21T07:51:07.434Z,23.23
2023-01-21T07:54:11.195Z,23.13
2023-01-21T07:57:14.701Z,23.48
2023-01-21T08:00:17.865Z,23.08
2023-01-21T08:03:25.243Z,26.17
2023-01-21T08:06:27.810Z,21.98
2023-01-21T08:09:30.360Z,19.23
2023-01-21T08:12:35.369Z,21.88
2023-01-21T08:15:43.276Z,19.02
2023-01-21T08:18:45.815Z,21.40
2023-01-21T08:21:49.516Z,19.80
2023-01-21T08:24:59.672Z,14.15
2023-01-21T08:28:05.274Z,20.60
2023-01-21T08:31:12.976Z,19.05
2023-01-21T08:34:16.671Z,19.97
2023-01-21T08:37:28.043Z,15.48
2023-01-21T08:40:35.319Z,21.42
2023-01-21T08:43:41.957Z,16.25
2023-01-21T08:46:44.616Z,20.70
2023-01-21T08:49:56.565Z,17.67
2023-01-21T08:53:01.701Z,17.20
2023-01-21T08:56:10.546Z,18.83
2023-01-21T08:59:13.412Z,21.58
2023-01-21T09:02:16.298Z,18.30
2023-01-21T09:05:22.180Z,18.43
2023-01-21T09:08:32.140Z,21.65
2023-01-21T09:11:37.473Z,22.90
2023-01-21T09:14:39.685Z,16.75
2023-01-21T09:17:42.549Z,25.58
2023-01-21T09:20:45.332Z,23.00
2023-01-21T09:23:47.484Z,15.38
2023-01-21T09:26:49.775Z,24.73
2023-01-21T09:29:51.791Z,22.23
2023-01-21T09:32:53.954Z,20.45
2023-01-21T09:35:59.098Z,32.03
2023-01-21T09:39:04.010Z,22.98
2023-01-21T09:42:06.337Z,19.15
2023-01-21T09:45:13.820Z,14.20
2023-01-21T09:48:36.638Z,19.30
2023-01-21T09:51:55.192Z,16.47
2023-01-21T09:58:42.139Z,23.70
2023-01-21T10:01:46.776Z,22.13
2023-01-21T10:05:02.637Z,21.60
2023-01-21T10:08:22.974Z,19.57
2023-01-21T10:11:32.394Z,17.38
2023-01-21T10:15:26.680Z,20.50
2023-01-21T10:18:34.933Z,18.02
2023-01-21T10:21:58.385Z,25.50
2023-01-21T10:25:23.465Z,24.17
2023-01-21T10:28:35.738Z,23.08
2023-01-21T10:31:44.128Z,24.08
2023-01-21T10:34:55.860Z,23.15
2023-01-21T10:38:20.260Z,19.52
2023-01-21T10:42:08.559Z,19.30
2023-01-21T10:45:31.818Z,21.20
2023-01-21T10:49:25.632Z,23.17
2023-01-21T10:52:57.092Z,18.35
2023-01-21T10:56:07.837Z,24.52
2023-01-21T10:59:27.560Z,23.40
2023-01-21T11:02:34.451Z,26.15
2023-01-21T11:05:38.717Z,20.85
2023-01-21T11:08:44.496Z,20.55
2023-01-21T11:11:46.800Z,24.67
2023-01-21T11:14:59.919Z,24.33
2023-01-21T11:18:26.528Z,25.50
2023-01-21T11:21:28.704Z,23.58
2023-01-21T11:24:52.171Z,20.55
2023-01-21T11:27:55.196Z,27.92
2023-01-21T11:31:23.741Z,24.70
2023-01-21T11:34:25.915Z,27.00
2023-01-21T11:37:31.772Z,16.42
2023-01-21T11:40:34.613Z,21.05
2023-01-21T11:43:46.083Z,12.65
2023-01-21T11:46:48.637Z,21.27
2023-01-21T11:49:54.128Z,12.73
2023-01-21T11:53:18.837Z,29.77
2023-01-21T11:56:27.730Z,25.63
2023-01-21T11:59:47.608Z,24.98
2023-01-21T12:03:02.329Z,27.87
2023-01-21T12:06:07.397Z,30.48
2023-01-21T12:09:21.500Z,21.83
2023-01-21T12:12:38.196Z,19.77
2023-01-21T12:16:04.856Z,28.60
2023-01-21T12:19:28.178Z,29.17
2023-01-21T12:23:01.072Z,25.92
2023-01-21T12:26:15.106Z,24.02
2023-01-21T12:29:28.343Z,25.83
2023-01-21T12:32:47.451Z,25.10
2023-01-21T12:35:55.780Z,20.87
2023-01-21T12:39:35.400Z,20.25
2023-01-21T12:42:43.897Z,14.35
2023-01-21T12:45:52.457Z,12.85
2023-01-21T12:49:06.364Z,16.88
2023-01-21T12:52:21.528Z,16.13
2023-01-21T12:55:55.087Z,16.00
2023-01-21T12:59:05.945Z,11.45
2023-01-21T13:02:26.875Z,16.02
2023-01-21T13:05:48.422Z,15.25
2023-01-21T13:09:28.344Z,12.70
2023-01-21T13:12:33.462Z,16.00
2023-01-21T13:15:38.386Z,17.90
2023-01-21T13:18:51.392Z,18.58
2023-01-21T13:22:01.553Z,18.80
2023-01-21T13:25:42.149Z,16.70
2023-01-21T13:29:12.451Z,18.08
2023-01-21T13:32:14.654Z,14.57
2023-01-21T13:35:52.260Z,15.02
2023-01-21T13:39:03.424Z,16.95
2023-01-21T13:42:44.457Z,15.37
2023-01-21T13:46:24.477Z,16.65
2023-01-21T13:49:54.313Z,19.30
2023-01-21T13:53:05.374Z,10.88
2023-01-21T13:56:25.523Z,15.85
2023-01-21T13:59:43.149Z,16.70
2023-01-21T14:03:11.532Z,12.88
2023-01-21T14:06:29.553Z,14.23
2023-01-21T14:09:49.215Z,17.75
2023-01-21T14:13:09.579Z,14.38
2023-01-21T14:16:33.912Z,14.37
2023-01-21T14:19:48.429Z,8.30
2023-01-21T14:23:09.761Z,9.25
2023-01-21T14:26:25.545Z,16.63
2023-01-21T14:29:31.782Z,13.23
2023-01-21T14:32:50.505Z,13.10
2023-01-21T14:36:35.654Z,8.85
2023-01-21T14:39:44.627Z,9.07
2023-01-21T14:42:49.492Z,7.13
2023-01-21T14:45:55.746Z,9.85
2023-01-21T14:49:01.633Z,7.43
2023-01-21T14:52:05.449Z,5.57
2023-01-21T14:55:30.618Z,7.10
2023-01-21T14:58:36.064Z,8.05
2023-01-21T15:01:45.393Z,9.63
2023-01-21T15:05:17.173Z,5.60
2023-01-21T15:08:45.809Z,7.25
2023-01-21T15:11:52.307Z,6.05
2023-01-21T15:15:00.716Z,6.38
2023-01-21T15:18:27.510Z,6.63
2023-01-21T15:21:50.119Z,7.77
2023-01-21T15:25:20.220Z,7.78
2023-01-21T15:28:25.758Z,8.05
2023-01-21T15:31:28.344Z,9.45
2023-01-21T15:34:34.858Z,7.30
2023-01-21T15:37:46.871Z,9.27
2023-01-21T15:41:10.776Z,10.38
2023-01-21T15:44:13.259Z,8.10
2023-01-21T15:47:53.446Z,8.05
2023-01-21T15:51:04.984Z,12.77
2023-01-21T15:54:19.289Z,7.77
2023-01-21T15:57:36.675Z,11.02
2023-01-21T16:00:47.840Z,10.95
2023-01-21T16:04:27.066Z,18.35
2023-01-21T16:07:44.399Z,12.60
2023-01-21T16:11:05.729Z,12.17
2023-01-21T16:14:38.384Z,17.48
2023-01-21T16:18:04.072Z,16.45
2023-01-21T16:21:06.395Z,14.13
2023-01-21T16:24:17.661Z,18.90
2023-01-21T16:27:25.275Z,13.07
2023-01-21T16:30:32.508Z,19.05
2023-01-21T16:33:34.688Z,17.30
2023-01-21T16:36:41.716Z,16.35
2023-01-21T16:39:44.600Z,21.48
2023-01-21T16:42:47.706Z,11.90
2023-01-21T16:45:52.908Z,13.38
2023-01-21T16:48:57.966Z,14.73
2023-01-21T16:52:03.093Z,17.40
2023-01-21T16:55:18.971Z,15.30
2023-01-21T16:58:29.789Z,11.73
2023-01-21T17:01:32.377Z,10.00
2023-01-21T17:04:34.601Z,12.98
2023-01-21T17:07:49.815Z,15.30
2023-01-21T17:10:57.701Z,17.85
2023-01-21T17:14:07.069Z,15.77
2023-01-21T17:17:09.317Z,17.60
2023-01-21T17:20:51.342Z,15.10
2023-01-21T17:23:57.269Z,12.35
2023-01-21T17:27:09.972Z,13.07
2023-01-21T17:30:33.710Z,15.17
2023-01-21T17:33:36.698Z,12.45
2023-01-21T17:36:40.076Z,8.30
2023-01-21T17:39:48.504Z,18.75
2023-01-21T17:42:50.614Z,13.45
2023-01-21T17:45:56.340Z,12.73
2023-01-21T17:49:08.945Z,11.70
2023-01-21T17:52:20.526Z,13.60
2023-01-21T17:55:27.881Z,14.60
2023-01-21T17:58:32.793Z,16.42
2023-01-21T18:01:35.571Z,12.10
2023-01-21T18:04:38.441Z,14.75
2023-01-21T18:07:43.245Z,8.32
2023-01-21T18:10:49.201Z,14.45
2023-01-21T18:13:55.487Z,13.05
2023-01-21T18:16:57.904Z,13.20
2023-01-21T18:20:01.657Z,15.60
2023-01-21T18:23:03.961Z,13.95
2023-01-21T18:26:16.098Z,12.77
2023-01-21T18:29:19.698Z,14.20
2023-01-21T18:32:22.117Z,12.43
2023-01-21T18:35:29.645Z,10.65
2023-01-21T18:38:35.823Z,11.32
2023-01-21T18:41:38.038Z,12.93
2023-01-21T18:44:40.596Z,15.23
2023-01-21T18:47:42.740Z,15.10
2023-01-21T18:50:47.825Z,16.65
2023-01-21T18:53:50.850Z,13.32
2023-01-21T18:56:53.079Z,13.57
2023-01-21T18:59:55.772Z,17.05
2023-01-21T19:02:59.848Z,9.70
2023-01-21T19:06:03.403Z,17.45
2023-01-21T19:09:16.556Z,18.08
2023-01-21T19:12:24.453Z,12.23
2023-01-21T19:15:28.397Z,17.10
2023-01-21T19:18:30.692Z,20.37
2023-01-21T19:21:33.162Z,14.45
2023-01-21T19:24:36.132Z,19.08
2023-01-21T19:27:44.522Z,17.88
2023-01-21T19:30:49.569Z,13.88
2023-01-21T19:33:52.082Z,14.47
2023-01-21T19:36:55.061Z,16.13
2023-01-21T19:39:57.329Z,15.98
2023-01-21T19:42:59.561Z,15.38
2023-01-21T19:46:11.857Z,13.90
2023-01-21T19:49:17.071Z,11.73
2023-01-21T19:52:19.571Z,15.50
2023-01-21T19:55:26.721Z,11.68
2023-01-21T19:58:32.178Z,10.82
2023-01-21T20:01:35.682Z,14.10
2023-01-21T20:04:38.586Z,14.70
2023-01-21T20:07:48.843Z,12.20
2023-01-21T20:10:52.744Z,15.65
2023-01-21T20:13:56.231Z,14.18
2023-01-21T20:16:59.885Z,13.02
2023-01-21T20:20:19.662Z,12.93
2023-01-21T20:23:25.812Z,16.63
2023-01-21T20:26:28.714Z,8.38
2023-01-21T20:29:32.473Z,15.10
2023-01-21T20:32:35.034Z,10.75
2023-01-21T20:35:41.080Z,12.03
2023-01-21T20:38:44.864Z,14.48
2023-01-21T20:41:47.661Z,11.73
2023-01-21T20:44:50.404Z,17.02
2023-01-21T20:47:54.909Z,11.25
2023-01-21T20:50:58.324Z,14.33
2023-01-21T20:54:04.026Z,12.50
2023-01-21T20:57:15.905Z,13.77
2023-01-21T21:00:18.859Z,16.30
2023-01-21T21:03:22.378Z,16.55
2023-01-21T21:06:32.911Z,16.53
2023-01-21T21:09:36.503Z,11.13
2023-01-21T21:12:38.838Z,13.50
2023-01-21T21:15:46.401Z,17.80
2023-01-21T21:18:49.815Z,15.23
2023-01-21T21:21:52.377Z,16.07
2023-01-21T21:24:54.818Z,14.13
2023-01-21T21:27:57.415Z,8.68
2023-01-21T21:31:03.262Z,15.25
2023-01-21T21:34:05.589Z,13.60
2023-01-21T21:37:10.225Z,12.70
2023-01-21T21:40:12.776Z,12.32
2023-01-21T21:43:32.644Z,13.25
2023-01-21T21:46:54.011Z,15.35
2023-01-21T21:49:56.581Z,11.80
2023-01-21T21:53:00.479Z,15.43
2023-01-21T21:56:08.568Z,16.25
2023-01-21T21:59:13.164Z,13.38
2023-01-21T22:02:15.351Z,15.35
2023-01-21T22:05:20.090Z,16.67
2023-01-21T22:08:25.562Z,7.77
2023-01-21T22:11:29.853Z,12.23
2023-01-21T22:14:32.895Z,15.88
2023-01-21T22:17:36.804Z,10.30
2023-01-21T22:20:39.675Z,10.93
2023-01-21T22:23:45.615Z,10.87
2023-01-21T22:26:47.809Z,13.55
2023-01-21T22:29:50.771Z,10.35
2023-01-21T22:32:53.641Z,13.88
2023-01-21T22:35:56.078Z,12.68
2023-01-21T22:39:01.315Z,9.63
2023-01-21T22:42:05.239Z,8.73
2023-01-21T22:45:09.069Z,12.88
2023-01-21T22:48:14.443Z,7.00
2023-01-21T22:51:19.691Z,11.40
2023-01-21T22:54:24.174Z,10.97
2023-01-21T22:57:26.426Z,11.57
2023-01-21T23:00:40.503Z,9.70
2023-01-21T23:03:42.576Z,12.30
2023-01-21T23:06:44.963Z,12.75
2023-01-21T23:09:47.200Z,11.53
2023-01-21T23:12:50.149Z,12.70
2023-01-21T23:15:52.553Z,9.25
2023-01-21T23:19:04.335Z,10.68
2023-01-21T23:22:08.517Z,9.95
2023-01-21T23:25:12.916Z,11.47
2023-01-21T23:28:15.692Z,9.07
2023-01-21T23:31:18.181Z,10.23
2023-01-21T23:34:22.770Z,11.32
2023-01-21T23:37:24.966Z,6.43
2023-01-21T23:40:28.245Z,7.53
2023-01-21T23:43:30.516Z,12.73
2023-01-21T23:46:32.599Z,8.50
2023-01-21T23:49:39.114Z,10.57
2023-01-21T23:52:41.780Z,11.60
2023-01-21T23:55:50.488Z,9.80
2023-01-21T23:58:54.284Z,6.85
